Time;durP1;ratioP1;P1;durP2;ratioP2;P2;SDS_P1;SDS_P2;PMS_P1;PMS_P2;Temp;Humidity;BMP_temperature;BMP_pressure;BME280_temperature;BME280_humidity;BME280_pressure;Samples;Min_cycle;Max_cycle;Signal;HPM_P1;HPM_P2
2023/05/23 00:02:00;;;;;;;9.95;7.97;;;;;;;13.34;63.20;100534.81;20343824;29;20204;-80
2023/05/23 00:12:03;;;;;;;9.02;8.00;;;;;;;13.00;63.99;100530.47;20341661;29;20291;-80
2023/05/23 00:22:05;;;;;;;10.07;8.43;;;;;;;12.81;64.80;100535.84;20342911;29;20201;-80
2023/05/23 00:32:07;;;;;;;8.73;7.82;;;;;;;12.50;65.73;100555.41;20333821;29;20582;-80
2023/05/23 00:42:09;;;;;;;9.32;7.85;;;;;;;12.07;68.14;100558.63;20340137;29;20201;-80
2023/05/23 00:52:11;;;;;;;6.72;6.00;;;;;;;12.52;64.03;100567.22;20340358;29;20236;-79
2023/05/23 01:02:14;;;;;;;5.80;5.33;;;;;;;12.21;65.10;100591.16;20324890;29;20216;-80
2023/05/23 01:12:24;;;;;;;7.40;6.38;;;;;;;11.89;65.54;100587.09;20341288;29;20260;-79
2023/05/23 01:22:40;;;;;;;7.18;5.35;;;;;;;11.53;64.14;100595.34;20340288;29;20251;-79
2023/05/23 01:32:44;;;;;;;5.47;4.97;;;;;;;12.29;62.85;100578.13;20338833;29;20249;-80
2023/05/23 01:42:46;;;;;;;5.60;4.90;;;;;;;11.86;64.61;100581.31;20324264;29;20260;-80
2023/05/23 01:52:49;;;;;;;5.72;5.18;;;;;;;12.05;63.73;100587.28;20338103;29;20313;-80
2023/05/23 02:02:51;;;;;;;7.15;4.93;;;;;;;12.32;63.13;100589.56;20330870;29;20201;-79
2023/05/23 02:12:54;;;;;;;5.45;4.60;;;;;;;11.78;65.66;100607.63;20352209;29;20236;-79
2023/05/23 02:22:56;;;;;;;5.78;4.90;;;;;;;12.01;64.99;100592.00;20352182;29;20471;-79
2023/05/23 02:32:58;;;;;;;6.15;5.00;;;;;;;11.90;66.15;100593.59;20346351;29;20228;-79
2023/05/23 02:43:02;;;;;;;6.43;5.70;;;;;;;12.13;65.28;100600.53;20365894;29;20208;-79
2023/05/23 02:53:05;;;;;;;9.63;6.63;;;;;;;12.44;64.55;100602.09;20347038;29;20278;-80
2023/05/23 03:03:07;;;;;;;7.50;6.20;;;;;;;12.21;66.03;100610.97;20342750;29;20196;-79
2023/05/23 03:13:10;;;;;;;8.90;7.97;;;;;;;11.48;68.63;100612.53;20334635;29;20228;-79
2023/05/23 03:23:12;;;;;;;16.43;9.27;;;;;;;12.08;67.58;100623.38;20334185;29;20737;-79
2023/05/23 03:33:14;;;;;;;13.82;10.70;;;;;;;11.73;68.38;100620.00;20332307;29;20291;-79
2023/05/23 03:43:17;;;;;;;14.50;8.65;;;;;;;11.79;68.39;100623.44;20347583;29;20189;-79
2023/05/23 03:53:19;;;;;;;14.23;9.43;;;;;;;11.43;68.49;100638.97;20319440;29;20228;-80
2023/05/23 04:03:22;;;;;;;21.17;10.43;;;;;;;11.49;69.43;100662.25;20341886;29;20247;-79
2023/05/23 04:13:25;;;;;;;17.43;9.27;;;;;;;10.91;71.51;100673.06;20339982;29;20224;-79
2023/05/23 04:23:27;;;;;;;23.73;9.52;;;;;;;10.82;71.96;100683.56;20318704;29;20197;-76
2023/05/23 04:33:33;;;;;;;12.85;9.77;;;;;;;11.53;68.77;100669.69;20344439;29;20248;-77
2023/05/23 04:43:41;;;;;;;14.45;11.50;;;;;;;11.05;71.17;100681.34;20342926;29;20248;-77
2023/05/23 04:53:51;;;;;;;13.82;11.88;;;;;;;11.45;69.24;100684.69;20338158;29;20220;-77
2023/05/23 05:03:54;;;;;;;13.63;11.45;;;;;;;11.99;68.23;100687.72;20312541;29;20728;-80
2023/05/23 05:13:56;;;;;;;16.27;11.20;;;;;;;11.79;67.37;100691.31;20336313;29;20310;-78
2023/05/23 05:23:59;;;;;;;19.33;16.00;;;;;;;11.45;68.97;100696.00;20340949;29;20204;-79
2023/05/23 05:34:01;;;;;;;25.53;15.77;;;;;;;11.36;69.90;100715.00;20340442;29;20684;-78
2023/05/23 05:44:03;;;;;;;16.90;14.35;;;;;;;11.26;69.04;100726.63;20329336;29;20547;-78
2023/05/23 05:54:06;;;;;;;17.60;13.07;;;;;;;12.11;66.59;100741.56;20301822;29;20220;-78
2023/05/23 06:04:08;;;;;;;15.57;12.35;;;;;;;10.97;69.09;100748.00;20343560;29;20232;-77
2023/05/23 06:14:11;;;;;;;16.17;11.15;;;;;;;11.19;70.03;100741.31;20354585;29;20590;-77
2023/05/23 06:24:17;;;;;;;15.52;9.77;;;;;;;11.04;69.63;100752.31;20339324;29;20554;-77
2023/05/23 06:34:21;;;;;;;12.25;9.60;;;;;;;10.83;70.82;100769.97;20322692;29;20216;-77
2023/05/23 06:44:23;;;;;;;14.35;9.88;;;;;;;11.07;72.04;100779.91;20335945;29;20200;-77
2023/05/23 06:54:28;;;;;;;11.63;8.07;;;;;;;10.32;73.90;100787.69;20355176;29;20212;-77
2023/05/23 07:04:32;;;;;;;9.93;7.57;;;;;;;10.52;72.44;100789.88;20356176;29;20232;-76
2023/05/23 07:14:42;;;;;;;7.97;5.50;;;;;;;10.82;69.27;100819.13;20352309;29;20220;-77
2023/05/23 07:24:45;;;;;;;8.00;5.03;;;;;;;11.04;67.00;100831.41;20316949;29;20261;-77
2023/05/23 07:34:49;;;;;;;9.30;6.00;;;;;;;11.19;67.78;100833.72;20346476;29;20228;-78
2023/05/23 07:44:52;;;;;;;7.50;5.15;;;;;;;10.52;67.54;100843.53;20348414;29;20256;-77
2023/05/23 07:54:55;;;;;;;8.30;5.00;;;;;;;10.89;66.04;100858.16;20347108;29;20264;-78
2023/05/23 08:04:58;;;;;;;6.00;4.70;;;;;;;11.29;64.43;100862.47;20345629;29;20283;-77
2023/05/23 08:15:01;;;;;;;9.10;5.32;;;;;;;10.47;67.15;100866.25;20325413;29;20208;-77
2023/05/23 08:25:08;;;;;;;6.40;4.80;;;;;;;10.58;65.91;100876.09;20333585;29;20602;-78
2023/05/23 08:35:14;;;;;;;11.93;5.93;;;;;;;10.37;66.44;100877.00;20342732;29;20196;-78
2023/05/23 08:45:17;;;;;;;7.80;4.87;;;;;;;10.10;66.59;100898.63;20333475;29;20201;-78
2023/05/23 08:55:20;;;;;;;5.60;3.33;;;;;;;10.59;63.97;100899.50;20309668;29;20193;-77
2023/05/23 09:05:23;;;;;;;3.73;2.73;;;;;;;10.44;64.34;100912.06;20317898;29;20232;-79
2023/05/23 09:15:26;;;;;;;7.57;4.10;;;;;;;10.04;67.85;100924.50;20321267;29;20197;-78
2023/05/23 09:25:28;;;;;;;14.43;4.82;;;;;;;10.23;67.74;100942.00;20304025;29;20224;-78
2023/05/23 09:35:31;;;;;;;13.90;6.32;;;;;;;10.00;67.92;100949.72;20338752;29;20201;-78
2023/05/23 09:45:34;;;;;;;11.80;6.50;;;;;;;10.37;65.85;100956.00;20309138;29;20279;-78
2023/05/23 09:55:36;;;;;;;9.33;5.07;;;;;;;11.02;61.66;100958.88;20300834;29;20205;-78
2023/05/23 10:05:50;;;;;;;5.50;3.30;;;;;;;11.49;57.45;100962.78;20323147;29;20709;-79
2023/05/23 10:16:08;;;;;;;11.38;5.10;;;;;;;9.49;65.79;100979.19;20306967;29;20256;-77
2023/05/23 10:26:10;;;;;;;14.43;5.13;;;;;;;9.80;64.37;100984.94;20302020;29;20264;-78
2023/05/23 10:36:18;;;;;;;7.93;4.40;;;;;;;9.59;62.54;101009.13;20315110;29;20196;-78
2023/05/23 10:46:21;;;;;;;4.87;3.80;;;;;;;10.62;57.18;101006.13;20326476;29;20268;-77
2023/05/23 10:56:24;;;;;;;10.57;5.20;;;;;;;10.52;57.57;101018.56;20331961;29;20236;-77
2023/05/23 11:06:32;;;;;;;7.83;4.27;;;;;;;10.65;54.68;101007.47;20362519;29;20644;-79
2023/05/23 11:16:42;;;;;;;8.40;5.07;;;;;;;11.61;53.55;101016.66;20349468;29;20252;-78
2023/05/23 11:27:00;;;;;;;9.10;4.10;;;;;;;11.09;55.86;101026.22;20348525;29;20245;-78
2023/05/23 11:37:02;;;;;;;8.77;3.45;;;;;;;11.41;51.87;101022.94;20429735;29;20196;-78
2023/05/23 11:47:06;;;;;;;6.33;2.67;;;;;;;11.16;50.30;101012.41;20351472;29;20287;-79
2023/05/23 11:57:09;;;;;;;9.55;3.75;;;;;;;10.26;54.67;101043.78;20347701;29;20197;-79
2023/05/23 12:07:11;;;;;;;9.20;2.70;;;;;;;10.68;53.76;101049.19;20344676;29;20237;-77
2023/05/23 12:17:14;;;;;;;7.10;3.20;;;;;;;11.61;48.52;101042.09;20347322;29;20248;-76
2023/05/23 12:27:17;;;;;;;10.95;2.55;;;;;;;12.13;47.03;101059.03;20343010;29;20224;-77
2023/05/23 12:37:20;;;;;;;5.10;2.20;;;;;;;12.32;44.43;101045.38;20345702;29;20220;-78
2023/05/23 12:47:23;;;;;;;9.33;2.10;;;;;;;12.66;41.64;101035.94;20344183;29;20694;-79
2023/05/23 12:57:25;;;;;;;10.93;2.78;;;;;;;12.87;43.65;101049.34;20346315;29;20193;-78
2023/05/23 13:07:28;;;;;;;11.70;2.65;;;;;;;13.63;39.64;101024.50;20343872;29;20960;-78
2023/05/23 13:17:30;;;;;;;11.90;3.17;;;;;;;13.37;41.96;101018.19;20306221;29;20597;-78
2023/05/23 13:27:33;;;;;;;8.30;2.10;;;;;;;13.52;38.84;101028.94;20327052;29;20217;-79
2023/05/23 13:37:35;;;;;;;9.55;2.67;;;;;;;13.72;37.43;101028.09;20345140;29;20189;-79
2023/05/23 13:47:38;;;;;;;7.90;2.38;;;;;;;14.14;37.43;101016.69;20351050;29;20271;-80
2023/05/23 13:57:40;;;;;;;9.65;2.75;;;;;;;13.42;39.19;101012.34;20292665;29;20475;-78
2023/05/23 14:07:45;;;;;;;12.27;2.95;;;;;;;13.54;40.03;101008.72;20328806;29;20236;-80
2023/05/23 14:17:48;;;;;;;7.03;2.35;;;;;;;13.70;37.47;101013.44;20341156;29;20193;-79
2023/05/23 14:27:50;;;;;;;8.00;2.33;;;;;;;13.24;36.24;101014.47;20343800;29;20283;-79
2023/05/23 14:37:52;;;;;;;8.77;2.33;;;;;;;14.07;36.74;101017.28;20359128;29;20480;-79
2023/05/23 14:47:55;;;;;;;6.78;2.08;;;;;;;12.80;35.73;101021.53;20354339;29;20686;-79
2023/05/23 14:57:57;;;;;;;8.52;2.22;;;;;;;13.05;36.37;101017.75;20336774;29;20475;-79
2023/05/23 15:08:00;;;;;;;9.60;2.55;;;;;;;12.82;37.43;101024.84;20353479;29;20232;-79
2023/05/23 15:18:05;;;;;;;8.60;1.85;;;;;;;13.62;34.57;101014.31;20353120;29;20196;-80
2023/05/23 15:28:07;;;;;;;7.13;2.00;;;;;;;13.32;36.61;101018.41;20359855;29;20219;-80
2023/05/23 15:38:10;;;;;;;6.80;2.23;;;;;;;12.58;36.62;101018.97;20360254;29;20610;-80
2023/05/23 15:48:15;;;;;;;11.52;2.38;;;;;;;13.05;36.29;101017.75;20353453;29;20569;-81
2023/05/23 15:58:17;;;;;;;6.18;2.17;;;;;;;13.01;36.35;101018.78;20335852;29;20252;-80
2023/05/23 16:08:19;;;;;;;7.43;2.03;;;;;;;13.58;36.26;101016.22;20336681;29;20232;-80
2023/05/23 16:18:22;;;;;;;9.82;2.35;;;;;;;13.21;37.05;101029.31;20347657;29;20610;-81
2023/05/23 16:28:26;;;;;;;6.68;1.83;;;;;;;12.75;36.96;101021.72;20327239;29;20225;-79
2023/05/23 16:38:28;;;;;;;5.75;1.80;;;;;;;12.81;38.44;101017.50;20346044;29;20204;-79
2023/05/23 16:48:30;;;;;;;9.48;1.90;;;;;;;12.66;38.08;101023.78;20341755;29;20284;-79
2023/05/23 16:58:37;;;;;;;10.98;2.03;;;;;;;12.32;36.51;101031.22;20268844;29;20194;-79
2023/05/23 17:08:39;;;;;;;7.68;1.98;;;;;;;12.80;36.00;101032.03;20332467;29;20983;-79
2023/05/23 17:18:41;;;;;;;8.00;1.90;;;;;;;12.71;36.38;101032.06;20343595;29;20197;-79
2023/05/23 17:28:43;;;;;;;5.25;1.67;;;;;;;13.27;37.14;101027.13;20359067;29;20227;-77
2023/05/23 17:38:46;;;;;;;11.90;2.35;;;;;;;12.99;34.82;101038.97;20326491;29;20280;-78
2023/05/23 17:48:49;;;;;;;5.40;2.10;;;;;;;12.31;36.23;101046.53;20335158;29;20529;-78
2023/05/23 17:58:52;;;;;;;8.43;2.10;;;;;;;12.14;36.87;101051.38;20328839;29;20778;-78
2023/05/23 18:08:54;;;;;;;10.75;2.15;;;;;;;11.61;36.77;101056.25;20355647;29;20227;-78
2023/05/23 18:18:57;;;;;;;9.75;1.70;;;;;;;11.81;37.24;101063.22;20354487;29;20922;-78
2023/05/23 18:29:00;;;;;;;7.43;1.60;;;;;;;12.27;36.66;101068.22;20355636;29;20220;-78
2023/05/23 18:39:03;;;;;;;6.07;1.92;;;;;;;11.74;37.70;101064.91;20336473;29;20257;-78
2023/05/23 18:49:05;;;;;;;9.90;1.63;;;;;;;11.53;37.62;101070.38;20337743;29;20358;-79
2023/05/23 18:59:12;;;;;;;8.25;2.10;;;;;;;11.54;37.53;101084.16;20346597;29;20192;-78
2023/05/23 19:09:14;;;;;;;6.82;1.73;;;;;;;11.11;39.99;101105.84;20349465;29;20228;-79
2023/05/23 19:19:16;;;;;;;8.93;1.65;;;;;;;11.20;38.25;101124.50;20345645;29;20228;-79
2023/05/23 19:29:19;;;;;;;7.53;1.70;;;;;;;10.81;39.66;101136.63;20348285;29;20276;-78
2023/05/23 19:39:21;;;;;;;8.30;1.70;;;;;;;10.67;40.81;101146.34;20347444;29;20201;-78
2023/05/23 19:49:23;;;;;;;7.10;1.58;;;;;;;10.38;40.50;101155.25;20335793;29;20272;-78
2023/05/23 19:59:25;;;;;;;5.57;1.50;;;;;;;10.12;40.34;101161.53;20349687;29;20193;-79
2023/05/23 20:09:28;;;;;;;8.57;1.83;;;;;;;10.19;40.64;101181.69;20337790;29;20533;-78
2023/05/23 20:19:31;;;;;;;10.20;2.00;;;;;;;9.87;41.78;101199.63;20345255;29;20196;-78
2023/05/23 20:29:33;;;;;;;8.43;1.73;;;;;;;9.84;40.63;101216.34;20344299;29;20225;-78
2023/05/23 20:39:36;;;;;;;5.22;1.30;;;;;;;9.18;44.02;101231.78;20343989;29;20221;-79
2023/05/23 20:49:38;;;;;;;8.55;1.50;;;;;;;9.12;42.18;101238.69;20320511;29;20229;-78
2023/05/23 20:59:40;;;;;;;8.07;1.50;;;;;;;9.02;43.61;101244.50;20341304;29;20200;-78
2023/05/23 21:09:42;;;;;;;9.30;1.40;;;;;;;8.77;41.01;101257.91;20325257;29;20228;-78
2023/05/23 21:19:45;;;;;;;6.27;1.50;;;;;;;8.64;41.96;101261.50;20340677;29;20205;-78
2023/05/23 21:29:47;;;;;;;10.40;2.03;;;;;;;8.70;40.98;101267.88;20330881;29;20276;-78
2023/05/23 21:39:49;;;;;;;10.33;2.17;;;;;;;8.35;41.87;101263.63;20340949;29;20188;-78
2023/05/23 21:49:53;;;;;;;9.37;1.40;;;;;;;8.37;43.78;101261.34;20325587;29;20243;-78
2023/05/23 21:59:55;;;;;;;6.07;1.23;;;;;;;8.09;43.11;101252.75;20341219;29;20205;-78
2023/05/23 22:09:58;;;;;;;5.70;1.20;;;;;;;8.02;42.89;101259.88;20334412;29;20228;-78
2023/05/23 22:20:03;;;;;;;10.23;1.90;;;;;;;8.05;42.91;101262.94;20340563;29;20204;-78
2023/05/23 22:30:07;;;;;;;6.93;1.63;;;;;;;7.69;44.52;101261.75;20354097;29;20228;-78
2023/05/23 22:40:09;;;;;;;5.18;1.27;;;;;;;7.54;45.59;101259.09;20339564;29;20629;-79
2023/05/23 22:50:11;;;;;;;10.27;2.03;;;;;;;7.42;45.92;101254.72;20334310;29;20248;-79
2023/05/23 23:00:14;;;;;;;4.00;1.20;;;;;;;7.03;46.67;101266.09;20353320;29;20687;-79
2023/05/23 23:10:16;;;;;;;6.63;1.77;;;;;;;7.32;46.45;101263.28;20349637;29;20249;-78
2023/05/23 23:20:20;;;;;;;9.00;1.30;;;;;;;7.05;46.62;101260.19;20351788;29;20240;-79
2023/05/23 23:30:22;;;;;;;6.73;1.60;;;;;;;6.66;47.64;101272.34;20335740;29;20221;-78
2023/05/23 23:40:24;;;;;;;7.63;1.70;;;;;;;6.86;48.17;101270.47;20351468;29;20205;-78
2023/05/23 23:50:27;;;;;;;8.43;1.60;;;;;;;6.35;49.48;101282.06;20349585;29;20303;-78
